ADDS METAR Data INFO
IDs: Format: Raw Decoded Include TAF

Data at: 0142 UTC 20 Feb 2018

KTPF 200135Z AUTO 12009KT 10SM BKN075 BKN110 24/18 A3026 RMK AO2
KTPF 200115Z AUTO 12008G14KT 10SM SCT075 BKN090 BKN120 24/19 A3026 RMK AO2
KTPF 200055Z AUTO 13012G18KT 10SM SCT042 SCT085 SCT100 25/19 A3025 RMK AO2
KTPF 200035Z AUTO 12010G16KT 10SM SCT042 SCT085 SCT100 25/18 A3024 RMK AO2
KTPF 200015Z AUTO 11009G16KT 10SM SCT085 26/18 A3023 RMK AO2
KTPF 192355Z AUTO 11007KT 10SM CLR 26/17 A3023 RMK AO2
KTPF 192335Z AUTO 12010G15KT 10SM SCT050 26/17 A3023 RMK AO2
KTPF 192315Z AUTO 10008KT 10SM SCT080 27/16 A3022 RMK AO2
KTPF 192255Z AUTO 10011G15KT 10SM BKN080 27/17 A3022 RMK AO2
KTPF 192235Z AUTO 10010KT 10SM SCT055 SCT080 28/17 A3022 RMK AO2
KTPF 192215Z AUTO 13004KT 10SM SCT080 27/17 A3021 RMK AO2
KTPF 192155Z AUTO 14009KT 10SM BKN080 28/16 A3021 RMK AO2
KTPF 192135Z AUTO 15008G14KT 10SM SCT065 BKN080 29/16 A3021 RMK AO2
KTPF 192115Z AUTO 15007KT 10SM BKN065 BKN110 29/15 A3021 RMK AO2
KTPF 192055Z AUTO 13008KT 065V145 10SM BKN065 OVC110 29/15 A3021 RMK AO2
KTPF 192035Z AUTO 10004KT 10SM SCT065 OVC100 30/15 A3022 RMK AO2
KTPF 192015Z AUTO 15007KT 10SM SCT065 OVC100 29/15 A3022 RMK AO2
KTPF 191955Z AUTO 14007KT 10SM SCT065 BKN100 OVC120 28/15 A3022 RMK AO2
KTPF 191935Z AUTO 14010KT 10SM BKN100 OVC120 29/15 A3022 RMK AO2
KTPF 191915Z AUTO 11007KT 10SM SCT060 OVC100 28/15 A3023 RMK AO2
KTPF 191855Z AUTO 12009G16KT 10SM SCT060 OVC110 29/15 A3023 RMK AO2
KTPF 191835Z AUTO 10009KT 10SM OVC110 28/16 A3024 RMK AO2
KTPF 191815Z AUTO 10012G18KT 10SM OVC110 28/15 A3025 RMK AO2
KTPF 191755Z AUTO 12010G17KT 10SM SCT050 OVC100 28/15 A3027 RMK AO2
KTPF 191735Z AUTO 11013G17KT 10SM SCT050 OVC100 28/16 A3028 RMK AO2
KTPF 191715Z AUTO 12010G14KT 10SM SCT046 BKN100 OVC120 27/16 A3029 RMK AO2
KTPF 191655Z AUTO 11011G16KT 10SM SCT044 BKN110 27/17 A3030 RMK AO2
KTPF 191635Z AUTO 13008KT 10SM SCT040 BKN110 27/17 A3030 RMK AO2
KTPF 191615Z AUTO 12012G17KT 095V155 10SM SCT038 SCT047 BKN110 26/17 A3031 RMK AO2
KTPF 191555Z AUTO 13010KT 10SM OVC100 26/18 A3031 RMK AO2
KTPF 191535Z AUTO 13011G18KT 10SM OVC100 25/18 A3031 RMK AO2
KTPF 191515Z AUTO 13011G16KT 10SM OVC100 25/18 A3031 RMK AO2
KTPF 191455Z AUTO 13013KT 10SM BKN110 24/19 A3031 RMK AO2
KTPF 191435Z AUTO 12007KT 10SM SCT110 23/19 A3031 RMK AO2
KTPF 191415Z AUTO 10007KT 10SM CLR 22/19 A3031 RMK AO2
KTPF 191355Z AUTO 10006KT 10SM CLR 22/20 A3030 RMK AO2
KTPF 191335Z AUTO 10006KT 10SM CLR 21/21 A3030 RMK AO2
KTPF 191315Z AUTO 07006KT 10SM CLR A3030 RMK AO2
KTPF 191255Z AUTO 07005KT 10SM CLR A3029 RMK AO2
KTPF 191235Z AUTO 07005KT 7SM CLR A3029 RMK AO2
KTPF 191215Z AUTO 07004KT 7SM CLR A3028 RMK AO2
KTPF 191155Z AUTO 08006KT 7SM CLR A3027 RMK AO2
KTPF 191135Z AUTO 07004KT 7SM CLR A3027 RMK AO2
KTPF 191115Z AUTO 07004KT 7SM CLR A3027 RMK AO2
KTPF 191055Z AUTO 07004KT 7SM CLR A3026 RMK AO2
KTPF 191035Z AUTO 08004KT 7SM CLR A3025 RMK AO2
KTPF 191015Z AUTO 08003KT 7SM CLR A3025 RMK AO2
KTPF 190955Z AUTO 08004KT 7SM CLR A3025 RMK AO2
KTPF 190935Z AUTO 09004KT 7SM CLR A3024 RMK AO2
KTPF 190915Z AUTO 09005KT 10SM CLR A3024 RMK AO2
KTPF 190855Z AUTO 10006KT 10SM CLR A3023 RMK AO2
KTPF 190835Z AUTO 10006KT 10SM CLR A3023 RMK AO2
KTPF 190815Z AUTO 10006KT 10SM SCT110 A3023 RMK AO2
KTPF 190755Z AUTO 09006KT 10SM BKN110 A3024 RMK AO2
KTPF 190735Z AUTO 10006KT 10SM BKN110 A3024 RMK AO2
KTPF 190715Z AUTO 10008KT 10SM BKN110 A3024 RMK AO2
KTPF 190655Z AUTO 10006KT 10SM BKN110 A3024 RMK AO2
KTPF 190635Z AUTO 09007KT 10SM BKN110 A3024 RMK AO2
KTPF 190615Z AUTO 09006KT 10SM SCT011 OVC110 A3024 RMK AO2
KTPF 190555Z AUTO 09006KT 10SM OVC110 A3024 RMK AO2
KTPF 190535Z AUTO 08006KT 10SM OVC110 21/21 A3024 RMK AO2
KTPF 190515Z AUTO 09007KT 10SM BKN110 21/21 A3025 RMK AO2
KTPF 190455Z AUTO 09007KT 10SM SCT070 OVC110 21/20 A3025 RMK AO2
KTPF 190435Z AUTO 09006KT 10SM OVC110 21/19 A3025 RMK AO2
KTPF 190415Z AUTO 09005KT 10SM SCT041 SCT070 OVC110 21/18 A3025 RMK AO2
KTPF 190355Z AUTO 08005KT 10SM SCT041 BKN065 OVC110 21/18 A3025 RMK AO2
KTPF 190335Z AUTO 06004KT 10SM SCT041 SCT060 OVC110 21/18 A3025 RMK AO2
KTPF 190315Z AUTO 05004KT 10SM BKN039 BKN070 OVC110 21/18 A3025 RMK AO2
KTPF 190255Z AUTO 05006KT 10SM OVC039 21/18 A3025 RMK AO2
KTPF 190235Z AUTO 03006KT 10SM BKN041 BKN065 OVC090 21/17 A3025 RMK AO2
KTPF 190215Z AUTO 05003KT 10SM SCT043 BKN090 OVC110 21/17 A3025 RMK AO2
KTPF 190155Z AUTO 04003KT 10SM SCT080 BKN090 OVC120 21/17 A3024 RMK AO2
KTPF 190135Z AUTO 04003KT 10SM OVC080 22/17 A3023 RMK AO2
KTPF 190115Z AUTO 00000KT 10SM OVC080 22/16 A3023 RMK AO2
KTPF 190055Z AUTO 00000KT 10SM BKN075 OVC090 22/16 A3022 RMK AO2
KTPF 190035Z AUTO 00000KT 10SM SCT075 SCT085 OVC110 23/17 A3022 RMK AO2
KTPF 190015Z AUTO 00000KT 10SM OVC110 23/16 A3021 RMK AO2
KTPF 182355Z AUTO 31003KT 10SM BKN110 23/16 A3021 RMK AO2
KTPF 182335Z AUTO 30004KT 10SM OVC110 23/16 A3020 RMK AO2
KTPF 182315Z AUTO 29005KT 10SM BKN110 24/16 A3020 RMK AO2
KTPF 182255Z AUTO 29005KT 10SM BKN110 25/17 A3019 RMK AO2
KTPF 182235Z AUTO 27004KT 10SM BKN110 25/17 A3019 RMK AO2
KTPF 182215Z AUTO 26004KT 10SM BKN110 26/15 A3019 RMK AO2
KTPF 182155Z AUTO 28004KT 10SM BKN110 26/15 A3018 RMK AO2
KTPF 182135Z AUTO 27005KT 10SM OVC110 26/14 A3018 RMK AO2
KTPF 182115Z AUTO 28005KT 10SM OVC110 27/15 A3018 RMK AO2
KTPF 182055Z AUTO 26005KT 10SM OVC095 26/14 A3018 RMK AO2
KTPF 182035Z AUTO 27005KT 10SM BKN100 OVC120 26/14 A3018 RMK AO2
KTPF 182015Z AUTO 26004KT 10SM BKN100 OVC120 26/15 A3018 RMK AO2
KTPF 181955Z AUTO 28004KT 10SM OVC110 26/15 A3018 RMK AO2
KTPF 181935Z AUTO 29005KT 10SM OVC110 27/15 A3019 RMK AO2
KTPF 181915Z AUTO 28004KT 10SM OVC110 26/15 A3019 RMK AO2
KTPF 181855Z AUTO 26005KT 10SM OVC110 26/15 A3020 RMK AO2
KTPF 181835Z AUTO 26004KT 10SM OVC110 26/15 A3021 RMK AO2
KTPF 181815Z AUTO 26003KT 10SM BKN110 26/15 A3022 RMK AO2
KTPF 181755Z AUTO 00000KT 10SM OVC110 25/15 A3022 RMK AO2
KTPF 181735Z AUTO 26003KT 10SM OVC100 25/14 A3024 RMK AO2
KTPF 181715Z AUTO 21004KT 10SM OVC110 25/14 A3024 RMK AO2
KTPF 181655Z AUTO 00000KT 10SM BKN110 24/15 A3026 RMK AO2
KTPF 181635Z AUTO 22004KT 10SM OVC110 23/16 A3026 RMK AO2
KTPF 181615Z AUTO 25003KT 10SM BKN110 23/16 A3027 RMK AO2
KTPF 181555Z AUTO 00000KT 10SM BKN110 22/16 A3027 RMK AO2
KTPF 181535Z AUTO 00000KT 10SM BKN110 22/16 A3027 RMK AO2
KTPF 181515Z AUTO 00000KT 10SM BKN110 21/17 A3027 RMK AO2
KTPF 181455Z AUTO 00000KT 10SM SCT110 21/17 A3026 RMK AO2
KTPF 181435Z AUTO 19004KT 10SM SCT110 20/17 A3026 RMK AO2
KTPF 181415Z AUTO 00000KT 10SM CLR 20/18 A3025 RMK AO2
KTPF 181355Z AUTO 16004KT 10SM SCT110 20/18 A3024 RMK AO2